Cavalier Des Mers — 348667 — position and weather

sailwx.info

Track history (hours):
 
Tides and Currents Weather Stations Pressure Air Temp Water Temp Dewpoint Dewpoint Depression Visibility Wind Speed Wind Dir Waves Ship Positions

Cavalier Des Mers

Last reported at 2018-Feb-21 17:28 UTC. Time now 2018-Feb-24 18:02 UTC.
Position N 26°06' W 080°10'.

Type: . MMSI: 316027342.

Date/timePositionNaut miles runAvg speedWind from/ knotsBaromVisibWave heightAir tempDewpointWater temp
2018-Feb-21 17:28N 26°06' W 080°10'0 0.0
2018-Feb-21 16:58N 26°06' W 080°10'0 0.0
2018-Feb-21 16:28N 26°06' W 080°10'0 0.0
2018-Feb-21 15:58N 26°06' W 080°10'0 0.0
2018-Feb-21 15:19N 26°06' W 080°10'0 0.0
2018-Feb-20 21:05N 26°06' W 080°10'0 0.0
2018-Feb-20 20:53N 26°06' W 080°10'0 0.0
2018-Feb-20 20:20N 26°06' W 080°10'0 0.0
2018-Feb-20 19:56N 26°06' W 080°10'0 0.0
2018-Feb-20 19:26N 26°06' W 080°10'0 0.0
2018-Feb-20 18:38N 26°06' W 080°10'0 0.0
2018-Feb-20 18:26N 26°06' W 080°10'0 0.0
2018-Feb-20 17:41N 26°06' W 080°10'0 0.0
2018-Feb-20 17:14N 26°06' W 080°10'0 0.0
2018-Feb-20 16:53N 26°06' W 080°10'0 0.0
2018-Feb-20 15:44N 26°06' W 080°10'0 0.0
2018-Feb-20 15:29N 26°06' W 080°10'0 0.0
2018-Feb-20 14:59N 26°06' W 080°10'0 0.0
2018-Feb-20 14:26N 26°06' W 080°10'0 0.0
2018-Feb-20 13:02N 26°06' W 080°10'0 0.0
2018-Feb-20 12:59N 26°06' W 080°10'0 0.0
2018-Feb-20 11:29N 26°06' W 080°10'0 0.0
2018-Feb-20 09:05N 26°06' W 080°10'0 0.0
2018-Feb-20 08:47N 26°06' W 080°10'0 0.0
2018-Feb-20 07:38N 26°06' W 080°10'0 0.0
2018-Feb-20 07:23N 26°06' W 080°10'0 0.0
2018-Feb-20 05:53N 26°06' W 080°10'0 0.0
2018-Feb-20 05:26N 26°06' W 080°10'0 0.0
2018-Feb-20 03:41N 26°06' W 080°10'0 0.0
2018-Feb-20 03:26N 26°06' W 080°10'0 0.0
2018-Feb-20 02:59N 26°06' W 080°10'0 0.0
2018-Feb-20 02:29N 26°06' W 080°10'0 0.0
2018-Feb-20 01:59N 26°06' W 080°10'0 0.0
2018-Feb-20 01:29N 26°06' W 080°10'0 0.0
2018-Feb-20 00:59N 26°06' W 080°10'0 0.0
2018-Feb-20 00:02N 26°06' W 080°10'0 0.0
2018-Feb-19 21:59N 26°06' W 080°10'0 0.0
2018-Feb-19 21:17N 26°06' W 080°10'0 0.0
2018-Feb-19 20:50N 26°06' W 080°10'0 0.0
2018-Feb-19 20:05N 26°06' W 080°10'0 0.0
2018-Feb-19 19:50N 26°06' W 080°10'0 0.0
2018-Feb-19 19:05N 26°06' W 080°10'0 0.0
2018-Feb-19 18:53N 26°06' W 080°10'0 0.0
2018-Feb-19 18:23N 26°06' W 080°10'0 0.0
2018-Feb-19 17:35N 26°06' W 080°10'0 0.0
2018-Feb-19 17:20N 26°06' W 080°10'0 0.0
2018-Feb-19 16:50N 26°06' W 080°10'0 0.0
2018-Feb-19 16:23N 26°06' W 080°10'0 0.0
2018-Feb-19 15:53N 26°06' W 080°10'0 0.0
2018-Feb-19 15:26N 26°06' W 080°10'0 0.0
2018-Feb-19 14:56N 26°06' W 080°10'0 0.0
2018-Feb-19 14:08N 26°06' W 080°10'0 0.0
2018-Feb-19 13:53N 26°06' W 080°10'0 0.0
2018-Feb-19 13:29N 26°06' W 080°10'0 0.0
2018-Feb-18 20:48N 26°06' W 080°10'0 0.0
2018-Feb-18 20:15N 26°06' W 080°10'0 0.0
2018-Feb-18 20:00N 26°06' W 080°10'0 0.0
2018-Feb-18 19:18N 26°06' W 080°10'0 0.0
2018-Feb-18 19:00N 26°06' W 080°10'0 0.0
2018-Feb-18 18:30N 26°06' W 080°10'0 0.0
2018-Feb-18 17:51N 26°06' W 080°10'0 0.0
2018-Feb-18 17:21N 26°06' W 080°10'0 0.0
2018-Feb-18 16:51N 26°06' W 080°10'0 0.0
2018-Feb-18 16:21N 26°06' W 080°10'0 0.0
2018-Feb-18 15:54N 26°06' W 080°10'0 0.0
2018-Feb-18 15:09N 26°06' W 080°10'0 0.0
2018-Feb-18 13:39N 26°06' W 080°10'0 0.0
2018-Feb-18 13:24N 26°06' W 080°10'0 0.0
2018-Feb-18 12:54N 26°06' W 080°10'0 0.0
2018-Feb-17 19:10N 26°06' W 080°10'0 0.0
2018-Feb-17 18:58N 26°06' W 080°10'0 0.0
2018-Feb-17 17:54N 26°06' W 080°10'1 2.7
2018-Feb-17 17:23N 26°07' W 080°09'2 3.0
2018-Feb-17 16:51N 26°07' W 080°07'3 6.5
2018-Feb-17 16:25N 26°06' W 080°04'1 1.6
2018-Feb-17 15:57N 26°06' W 080°05'0 0.9
2018-Feb-17 15:28N 26°06' W 080°06'3 5.3
2018-Feb-17 14:57N 26°07' W 080°08'1 2.2
2018-Feb-17 14:26N 26°07' W 080°09'1 0.0
2018-Feb-16 19:52N 26°06' W 080°10'0 0.0
2018-Feb-16 19:25N 26°06' W 080°10'0 0.0
2018-Feb-16 18:55N 26°06' W 080°10'0 0.0
2018-Feb-16 18:22N 26°06' W 080°10'0 0.0
2018-Feb-16 17:55N 26°06' W 080°10'0 0.0
2018-Feb-16 17:22N 26°06' W 080°10'0 0.0
2018-Feb-16 16:52N 26°06' W 080°10'0 0.0
2018-Feb-16 16:22N 26°06' W 080°10'0 0.0
2018-Feb-16 15:52N 26°06' W 080°10'0 0.0
2018-Feb-16 15:22N 26°06' W 080°10'0 0.0
2018-Feb-16 14:55N 26°06' W 080°10'0 0.0
2018-Feb-16 14:25N 26°06' W 080°10'0 0.0
2018-Feb-16 13:52N 26°06' W 080°10'0 0.0
2018-Feb-16 13:25N 26°06' W 080°10'0 0.0
2018-Feb-16 12:55N 26°06' W 080°10'0 0.0
2018-Feb-16 01:03N 26°06' W 080°10'0 0.0
2018-Feb-16 01:00N 26°06' W 080°10'0 0.0
2018-Feb-16 00:21N 26°06' W 080°10'0 0.0
2018-Feb-16 00:00N 26°06' W 080°10'0 0.0
2018-Feb-15 20:09N 26°06' W 080°10'0 0.0
2018-Feb-15 19:51N 26°06' W 080°10'0 0.0
2018-Feb-15 19:21N 26°06' W 080°10'0 0.0
2018-Feb-15 18:35N 26°06' W 080°10'0 0.0
2018-Feb-15 18:23N 26°06' W 080°10'0 0.0
2018-Feb-15 17:38N 26°06' W 080°10'0 0.0
2018-Feb-15 17:20N 26°06' W 080°10'0 0.0
2018-Feb-15 16:50N 26°06' W 080°10'0 0.0
2018-Feb-15 16:29N 26°06' W 080°10'0 0.0
2018-Feb-15 15:56N 26°06' W 080°10'0 0.0
2018-Feb-15 15:14N 26°06' W 080°10'0 0.0
2018-Feb-15 14:56N 26°06' W 080°10'0 0.0
2018-Feb-15 14:26N 26°06' W 080°10'0 0.0
2018-Feb-15 13:53N 26°06' W 080°10'0 0.0
2018-Feb-15 13:29N 26°06' W 080°10'0 0.0
2018-Feb-15 12:56N 26°06' W 080°10'0 0.0
2018-Feb-15 12:29N 26°06' W 080°10'0 0.0
2018-Feb-14 22:30N 26°06' W 080°10'0 0.0
2018-Feb-14 22:00N 26°06' W 080°10'0 0.0
2018-Feb-14 21:27N 26°06' W 080°10'0 0.0
2018-Feb-14 21:00N 26°06' W 080°10'0 0.0
2018-Feb-14 20:27N 26°06' W 080°10'0 0.0
2018-Feb-14 19:21N 26°06' W 080°10'0 0.0
2018-Feb-14 18:57N 26°06' W 080°10'0 0.0
2018-Feb-14 18:30N 26°06' W 080°10'0 0.0
2018-Feb-14 17:48N 26°06' W 080°10'0 0.0
2018-Feb-14 17:21N 26°06' W 080°10'0 0.0
2018-Feb-14 16:18N 26°06' W 080°10'0 0.0
2018-Feb-14 15:51N 26°06' W 080°10'0 0.0
2018-Feb-14 15:27N 26°06' W 080°10'0 0.0
2018-Feb-14 14:45N 26°06' W 080°10'0 0.0
2018-Feb-14 13:39N 26°06' W 080°10'0 0.0
2018-Feb-14 13:21N 26°06' W 080°10'0 0.0
2018-Feb-13 19:52N 26°06' W 080°10'0 0.0
2018-Feb-13 19:22N 26°06' W 080°10'0 0.0
2018-Feb-13 18:34N 26°06' W 080°10'0 0.0
2018-Feb-13 18:25N 26°06' W 080°10'0 0.0
2018-Feb-13 17:22N 26°06' W 080°10'0 0.0
2018-Feb-13 16:10N 26°06' W 080°10'0 0.0
2018-Feb-13 15:52N 26°06' W 080°10'0 0.0
2018-Feb-13 14:55N 26°06' W 080°10'0 0.0
2018-Feb-13 14:25N 26°06' W 080°10'0 0.0
2018-Feb-13 13:43N 26°06' W 080°10'0 0.0
2018-Feb-13 13:25N 26°06' W 080°10'0 0.0
2018-Feb-13 12:49N 26°06' W 080°10'0 0.0
2018-Feb-13 12:25N 26°06' W 080°10'0 0.0
2018-Feb-12 22:48N 26°06' W 080°10'0 0.0
2018-Feb-12 21:51N 26°06' W 080°10'0 0.0
2018-Feb-12 21:09N 26°06' W 080°10'0 0.0
2018-Feb-12 19:48N 26°06' W 080°10'0 0.0
2018-Feb-12 19:15N 26°06' W 080°10'0 0.0
2018-Feb-12 19:00N 26°06' W 080°10'0 0.0
2018-Feb-12 18:06N 26°06' W 080°10'0 0.0
2018-Feb-12 17:39N 26°06' W 080°10'0 0.0
2018-Feb-12 17:24N 26°06' W 080°10'0 0.0
2018-Feb-12 16:53N 26°06' W 080°10'0 0.0
2018-Feb-11 19:21N 26°06' W 080°10'0 0.0
2018-Feb-11 18:57N 26°06' W 080°10'0 0.0
2018-Feb-11 18:18N 26°06' W 080°10'0 0.0
2018-Feb-11 17:54N 26°06' W 080°10'  
Track history (hours):
 
Tides and Currents Weather Stations Pressure Air Temp Water Temp Dewpoint Dewpoint Depression Visibility Wind Speed Wind Dir Waves Ship Positions

Cavalier Des Mers

Last reported at 2018-Feb-21 17:28 UTC. Time now 2018-Feb-24 18:02 UTC.
Position N 26°06' W 080°10'.

Type: . MMSI: 316027342.

Date/timePositionNaut miles runAvg speedWind from/ knotsBaromVisibWave heightAir tempDewpointWater temp
2018-Feb-21 17:28N 26°06' W 080°10'0 0.0
2018-Feb-21 16:58N 26°06' W 080°10'0 0.0
2018-Feb-21 16:28N 26°06' W 080°10'0 0.0
2018-Feb-21 15:58N 26°06' W 080°10'0 0.0
2018-Feb-21 15:19N 26°06' W 080°10'0 0.0
2018-Feb-20 21:05N 26°06' W 080°10'0 0.0
2018-Feb-20 20:53N 26°06' W 080°10'0 0.0
2018-Feb-20 20:20N 26°06' W 080°10'0 0.0
2018-Feb-20 19:56N 26°06' W 080°10'0 0.0
2018-Feb-20 19:26N 26°06' W 080°10'0 0.0
2018-Feb-20 18:38N 26°06' W 080°10'0 0.0
2018-Feb-20 18:26N 26°06' W 080°10'0 0.0
2018-Feb-20 17:41N 26°06' W 080°10'0 0.0
2018-Feb-20 17:14N 26°06' W 080°10'0 0.0
2018-Feb-20 16:53N 26°06' W 080°10'0 0.0
2018-Feb-20 15:44N 26°06' W 080°10'0 0.0
2018-Feb-20 15:29N 26°06' W 080°10'0 0.0
2018-Feb-20 14:59N 26°06' W 080°10'0 0.0
2018-Feb-20 14:26N 26°06' W 080°10'0 0.0
2018-Feb-20 13:02N 26°06' W 080°10'0 0.0
2018-Feb-20 12:59N 26°06' W 080°10'0 0.0
2018-Feb-20 11:29N 26°06' W 080°10'0 0.0
2018-Feb-20 09:05N 26°06' W 080°10'0 0.0
2018-Feb-20 08:47N 26°06' W 080°10'0 0.0
2018-Feb-20 07:38N 26°06' W 080°10'0 0.0
2018-Feb-20 07:23N 26°06' W 080°10'0 0.0
2018-Feb-20 05:53N 26°06' W 080°10'0 0.0
2018-Feb-20 05:26N 26°06' W 080°10'0 0.0
2018-Feb-20 03:41N 26°06' W 080°10'0 0.0
2018-Feb-20 03:26N 26°06' W 080°10'0 0.0
2018-Feb-20 02:59N 26°06' W 080°10'0 0.0
2018-Feb-20 02:29N 26°06' W 080°10'0 0.0
2018-Feb-20 01:59N 26°06' W 080°10'0 0.0
2018-Feb-20 01:29N 26°06' W 080°10'0 0.0
2018-Feb-20 00:59N 26°06' W 080°10'0 0.0
2018-Feb-20 00:02N 26°06' W 080°10'0 0.0
2018-Feb-19 21:59N 26°06' W 080°10'0 0.0
2018-Feb-19 21:17N 26°06' W 080°10'0 0.0
2018-Feb-19 20:50N 26°06' W 080°10'0 0.0
2018-Feb-19 20:05N 26°06' W 080°10'0 0.0
2018-Feb-19 19:50N 26°06' W 080°10'0 0.0
2018-Feb-19 19:05N 26°06' W 080°10'0 0.0
2018-Feb-19 18:53N 26°06' W 080°10'0 0.0
2018-Feb-19 18:23N 26°06' W 080°10'0 0.0
2018-Feb-19 17:35N 26°06' W 080°10'0 0.0
2018-Feb-19 17:20N 26°06' W 080°10'0 0.0
2018-Feb-19 16:50N 26°06' W 080°10'0 0.0
2018-Feb-19 16:23N 26°06' W 080°10'0 0.0
2018-Feb-19 15:53N 26°06' W 080°10'0 0.0
2018-Feb-19 15:26N 26°06' W 080°10'0 0.0
2018-Feb-19 14:56N 26°06' W 080°10'0 0.0
2018-Feb-19 14:08N 26°06' W 080°10'0 0.0
2018-Feb-19 13:53N 26°06' W 080°10'0 0.0
2018-Feb-19 13:29N 26°06' W 080°10'0 0.0
2018-Feb-18 20:48N 26°06' W 080°10'0 0.0
2018-Feb-18 20:15N 26°06' W 080°10'0 0.0
2018-Feb-18 20:00N 26°06' W 080°10'0 0.0
2018-Feb-18 19:18N 26°06' W 080°10'0 0.0
2018-Feb-18 19:00N 26°06' W 080°10'0 0.0
2018-Feb-18 18:30N 26°06' W 080°10'0 0.0
2018-Feb-18 17:51N 26°06' W 080°10'0 0.0
2018-Feb-18 17:21N 26°06' W 080°10'0 0.0
2018-Feb-18 16:51N 26°06' W 080°10'0 0.0
2018-Feb-18 16:21N 26°06' W 080°10'0 0.0
2018-Feb-18 15:54N 26°06' W 080°10'0 0.0
2018-Feb-18 15:09N 26°06' W 080°10'0 0.0
2018-Feb-18 13:39N 26°06' W 080°10'0 0.0
2018-Feb-18 13:24N 26°06' W 080°10'0 0.0
2018-Feb-18 12:54N 26°06' W 080°10'0 0.0
2018-Feb-17 19:10N 26°06' W 080°10'0 0.0
2018-Feb-17 18:58N 26°06' W 080°10'0 0.0
2018-Feb-17 17:54N 26°06' W 080°10'1 2.7
2018-Feb-17 17:23N 26°07' W 080°09'2 3.0
2018-Feb-17 16:51N 26°07' W 080°07'3 6.5
2018-Feb-17 16:25N 26°06' W 080°04'1 1.6
2018-Feb-17 15:57N 26°06' W 080°05'0 0.9
2018-Feb-17 15:28N 26°06' W 080°06'3 5.3
2018-Feb-17 14:57N 26°07' W 080°08'1 2.2
2018-Feb-17 14:26N 26°07' W 080°09'1 0.0
2018-Feb-16 19:52N 26°06' W 080°10'0 0.0
2018-Feb-16 19:25N 26°06' W 080°10'0 0.0
2018-Feb-16 18:55N 26°06' W 080°10'0 0.0
2018-Feb-16 18:22N 26°06' W 080°10'0 0.0
2018-Feb-16 17:55N 26°06' W 080°10'0 0.0
2018-Feb-16 17:22N 26°06' W 080°10'0 0.0
2018-Feb-16 16:52N 26°06' W 080°10'0 0.0
2018-Feb-16 16:22N 26°06' W 080°10'0 0.0
2018-Feb-16 15:52N 26°06' W 080°10'0 0.0
2018-Feb-16 15:22N 26°06' W 080°10'0 0.0
2018-Feb-16 14:55N 26°06' W 080°10'0 0.0
2018-Feb-16 14:25N 26°06' W 080°10'0 0.0
2018-Feb-16 13:52N 26°06' W 080°10'0 0.0
2018-Feb-16 13:25N 26°06' W 080°10'0 0.0
2018-Feb-16 12:55N 26°06' W 080°10'0 0.0
2018-Feb-16 01:03N 26°06' W 080°10'0 0.0
2018-Feb-16 01:00N 26°06' W 080°10'0 0.0
2018-Feb-16 00:21N 26°06' W 080°10'0 0.0
2018-Feb-16 00:00N 26°06' W 080°10'0 0.0
2018-Feb-15 20:09N 26°06' W 080°10'0 0.0
2018-Feb-15 19:51N 26°06' W 080°10'0 0.0
2018-Feb-15 19:21N 26°06' W 080°10'0 0.0
2018-Feb-15 18:35N 26°06' W 080°10'0 0.0
2018-Feb-15 18:23N 26°06' W 080°10'0 0.0
2018-Feb-15 17:38N 26°06' W 080°10'0 0.0
2018-Feb-15 17:20N 26°06' W 080°10'0 0.0
2018-Feb-15 16:50N 26°06' W 080°10'0 0.0
2018-Feb-15 16:29N 26°06' W 080°10'0 0.0
2018-Feb-15 15:56N 26°06' W 080°10'0 0.0
2018-Feb-15 15:14N 26°06' W 080°10'0 0.0
2018-Feb-15 14:56N 26°06' W 080°10'0 0.0
2018-Feb-15 14:26N 26°06' W 080°10'0 0.0
2018-Feb-15 13:53N 26°06' W 080°10'0 0.0
2018-Feb-15 13:29N 26°06' W 080°10'0 0.0
2018-Feb-15 12:56N 26°06' W 080°10'0 0.0
2018-Feb-15 12:29N 26°06' W 080°10'0 0.0
2018-Feb-14 22:30N 26°06' W 080°10'0 0.0
2018-Feb-14 22:00N 26°06' W 080°10'0 0.0
2018-Feb-14 21:27N 26°06' W 080°10'0 0.0
2018-Feb-14 21:00N 26°06' W 080°10'0 0.0
2018-Feb-14 20:27N 26°06' W 080°10'0 0.0
2018-Feb-14 19:21N 26°06' W 080°10'0 0.0
2018-Feb-14 18:57N 26°06' W 080°10'0 0.0
2018-Feb-14 18:30N 26°06' W 080°10'0 0.0
2018-Feb-14 17:48N 26°06' W 080°10'0 0.0
2018-Feb-14 17:21N 26°06' W 080°10'0 0.0
2018-Feb-14 16:18N 26°06' W 080°10'0 0.0
2018-Feb-14 15:51N 26°06' W 080°10'0 0.0
2018-Feb-14 15:27N 26°06' W 080°10'0 0.0
2018-Feb-14 14:45N 26°06' W 080°10'0 0.0
2018-Feb-14 13:39N 26°06' W 080°10'0 0.0
2018-Feb-14 13:21N 26°06' W 080°10'0 0.0
2018-Feb-13 19:52N 26°06' W 080°10'0 0.0
2018-Feb-13 19:22N 26°06' W 080°10'0 0.0
2018-Feb-13 18:34N 26°06' W 080°10'0 0.0
2018-Feb-13 18:25N 26°06' W 080°10'0 0.0
2018-Feb-13 17:22N 26°06' W 080°10'0 0.0
2018-Feb-13 16:10N 26°06' W 080°10'0 0.0
2018-Feb-13 15:52N 26°06' W 080°10'0 0.0
2018-Feb-13 14:55N 26°06' W 080°10'0 0.0
2018-Feb-13 14:25N 26°06' W 080°10'0 0.0
2018-Feb-13 13:43N 26°06' W 080°10'0 0.0
2018-Feb-13 13:25N 26°06' W 080°10'0 0.0
2018-Feb-13 12:49N 26°06' W 080°10'0 0.0
2018-Feb-13 12:25N 26°06' W 080°10'0 0.0
2018-Feb-12 22:48N 26°06' W 080°10'0 0.0
2018-Feb-12 21:51N 26°06' W 080°10'0 0.0
2018-Feb-12 21:09N 26°06' W 080°10'0 0.0
2018-Feb-12 19:48N 26°06' W 080°10'0 0.0
2018-Feb-12 19:15N 26°06' W 080°10'0 0.0
2018-Feb-12 19:00N 26°06' W 080°10'0 0.0
2018-Feb-12 18:06N 26°06' W 080°10'0 0.0
2018-Feb-12 17:39N 26°06' W 080°10'0 0.0
2018-Feb-12 17:24N 26°06' W 080°10'0 0.0
2018-Feb-12 16:53N 26°06' W 080°10'0 0.0
2018-Feb-11 19:21N 26°06' W 080°10'0 0.0
2018-Feb-11 18:57N 26°06' W 080°10'0 0.0
2018-Feb-11 18:18N 26°06' W 080°10'0 0.0
2018-Feb-11 17:54N 26°06' W 080°10'  

Dump ship's entire track history